createdAt,value
2016-12-03T00:00:18.648Z,0
2016-12-03T00:01:28.803Z,0
2016-12-03T00:02:38.341Z,0
2016-12-03T00:03:48.382Z,0
2016-12-03T00:04:58.500Z,0
2016-12-03T00:06:07.989Z,0
2016-12-03T00:07:17.695Z,0
2016-12-03T00:08:26.891Z,0
2016-12-03T00:09:36.934Z,0
2016-12-03T00:10:46.952Z,0
2016-12-03T00:11:56.982Z,0
2016-12-03T00:13:06.781Z,0
2016-12-03T00:14:16.784Z,0
2016-12-03T00:15:27.117Z,0
2016-12-03T00:16:36.802Z,0
2016-12-03T00:17:45.948Z,0
2016-12-03T00:18:55.994Z,0
2016-12-03T00:20:06.009Z,0
2016-12-03T00:21:15.778Z,0
2016-12-03T00:22:25.568Z,0
2016-12-03T00:23:35.383Z,0
2016-12-03T00:24:44.497Z,0
2016-12-03T00:25:53.599Z,0
2016-12-03T00:27:02.992Z,0
2016-12-03T00:28:13.178Z,0
2016-12-03T00:29:22.857Z,0
2016-12-03T00:30:32.354Z,0
2016-12-03T00:31:42.112Z,0
2016-12-03T00:32:51.518Z,0
2016-12-03T00:34:01.869Z,0
2016-12-03T00:35:12.227Z,0
2016-12-03T00:36:22.257Z,0
2016-12-03T00:37:31.390Z,0
2016-12-03T00:38:41.446Z,0
2016-12-03T00:39:51.155Z,0
2016-12-03T00:41:00.249Z,0
2016-12-03T00:42:10.252Z,0
2016-12-03T00:43:19.926Z,0
2016-12-03T00:44:30.314Z,0
2016-12-03T00:45:40.038Z,0
2016-12-03T00:46:49.723Z,0
2016-12-03T00:47:59.595Z,0
2016-12-03T00:49:10.007Z,0
2016-12-03T00:50:19.727Z,0
2016-12-03T00:51:30.057Z,0
2016-12-03T00:52:40.095Z,0
2016-12-03T00:53:49.804Z,0
2016-12-03T00:55:00.123Z,0
2016-12-03T00:56:09.916Z,0
2016-12-03T00:57:19.932Z,0
2016-12-03T00:58:29.614Z,0
2016-12-03T00:59:39.317Z,0
2016-12-03T01:00:49.404Z,0
2016-12-03T01:01:59.723Z,0
2016-12-03T01:03:10.055Z,0
2016-12-03T01:04:20.116Z,0
2016-12-03T01:05:29.843Z,0
2016-12-03T01:06:39.874Z,0
2016-12-03T01:07:49.676Z,0
2016-12-03T01:08:59.385Z,0
2016-12-03T01:10:09.404Z,0
2016-12-03T01:11:19.425Z,0
2016-12-03T01:12:29.763Z,0
2016-12-03T01:13:39.871Z,0
2016-12-03T01:14:49.986Z,0
2016-12-03T01:16:00.390Z,0
2016-12-03T01:17:10.075Z,0
2016-12-03T01:18:19.474Z,0
2016-12-03T01:19:29.506Z,0
2016-12-03T01:20:39.266Z,0
2016-12-03T01:21:48.654Z,0
2016-12-03T01:22:58.686Z,0
2016-12-03T01:24:08.393Z,0
2016-12-03T01:25:18.192Z,0
2016-12-03T01:26:28.039Z,0
2016-12-03T01:27:38.044Z,0
2016-12-03T01:28:47.743Z,0
2016-12-03T01:29:57.746Z,0
2016-12-03T01:31:07.162Z,0
2016-12-03T01:32:16.244Z,0
2016-12-03T01:33:26.274Z,0
2016-12-03T01:34:36.289Z,0
2016-12-03T01:35:46.122Z,0
2016-12-03T01:36:55.506Z,0
2016-12-03T01:38:05.817Z,0
2016-12-03T01:39:15.816Z,0
2016-12-03T01:40:25.520Z,0
2016-12-03T01:41:35.541Z,0
2016-12-03T01:42:44.935Z,0
2016-12-03T01:43:54.937Z,0
2016-12-03T01:45:05.044Z,0
2016-12-03T01:46:14.734Z,0
2016-12-03T01:47:24.545Z,0
2016-12-03T01:48:34.585Z,0
2016-12-03T01:49:44.895Z,0
2016-12-03T01:50:54.886Z,0
2016-12-03T01:52:04.945Z,0
2016-12-03T01:53:14.755Z,0
2016-12-03T01:54:24.465Z,0
2016-12-03T01:55:34.235Z,0
2016-12-03T01:56:43.988Z,0
2016-12-03T01:57:53.743Z,0
2016-12-03T01:59:03.447Z,0
2016-12-03T02:00:13.765Z,0
2016-12-03T02:01:24.083Z,0
2016-12-03T02:02:34.506Z,0
2016-12-03T02:03:44.282Z,0
2016-12-03T02:04:54.358Z,0
2016-12-03T02:06:04.198Z,0
2016-12-03T02:07:14.520Z,0
2016-12-03T02:08:23.923Z,0
2016-12-03T02:09:33.634Z,0
2016-12-03T02:10:43.299Z,0
2016-12-03T02:11:52.688Z,0
2016-12-03T02:13:02.785Z,0
2016-12-03T02:14:12.486Z,0
2016-12-03T02:15:22.553Z,0
2016-12-03T02:16:32.326Z,0
2016-12-03T02:17:42.340Z,0
2016-12-03T02:18:52.042Z,0
2016-12-03T02:20:01.174Z,0
2016-12-03T02:21:10.558Z,0
2016-12-03T02:22:20.427Z,0
2016-12-03T02:23:30.440Z,0
2016-12-03T02:24:40.787Z,0
2016-12-03T02:25:50.793Z,0
2016-12-03T02:27:00.473Z,0
2016-12-03T02:28:10.516Z,0
2016-12-03T02:29:19.876Z,0
2016-12-03T02:30:29.932Z,0
2016-12-03T02:31:39.974Z,0
2016-12-03T02:32:49.760Z,0
2016-12-03T02:33:59.489Z,0
2016-12-03T02:35:08.897Z,0
2016-12-03T02:36:18.285Z,0
2016-12-03T02:37:27.977Z,0
2016-12-03T02:38:37.353Z,0
2016-12-03T02:39:47.667Z,0
2016-12-03T02:40:57.377Z,0
2016-12-03T02:42:07.376Z,0
2016-12-03T02:43:16.770Z,0
2016-12-03T02:44:26.158Z,0
2016-12-03T02:45:36.158Z,0
2016-12-03T02:46:46.010Z,0
2016-12-03T02:47:55.745Z,0
2016-12-03T02:49:06.082Z,0
2016-12-03T02:50:16.504Z,0
2016-12-03T02:51:25.393Z,0
2016-12-03T02:52:34.520Z,0
2016-12-03T02:53:43.623Z,0
2016-12-03T02:54:54.019Z,0
2016-12-03T02:56:04.073Z,0
2016-12-03T02:57:14.088Z,0
2016-12-03T02:58:23.800Z,0
2016-12-03T02:59:33.814Z,0
2016-12-03T03:00:43.505Z,0
2016-12-03T03:01:53.177Z,0
2016-12-03T03:03:03.187Z,0
2016-12-03T03:04:12.606Z,0
2016-12-03T03:05:22.316Z,0
2016-12-03T03:06:32.011Z,0
2016-12-03T03:07:41.694Z,0
2016-12-03T03:08:51.801Z,0
2016-12-03T03:10:00.873Z,0
2016-12-03T03:11:10.105Z,0
2016-12-03T03:12:19.188Z,0
2016-12-03T03:13:28.924Z,0
2016-12-03T03:14:38.927Z,0
2016-12-03T03:15:48.441Z,0
2016-12-03T03:16:58.439Z,0
2016-12-03T03:18:08.448Z,0
2016-12-03T03:19:18.249Z,0
2016-12-03T03:20:28.036Z,0
2016-12-03T03:21:37.728Z,0
2016-12-03T03:22:47.727Z,0
2016-12-03T03:23:57.827Z,0
2016-12-03T03:25:07.200Z,0
2016-12-03T03:26:16.267Z,0
2016-12-03T03:27:25.756Z,0
2016-12-03T03:28:35.128Z,0
2016-12-03T03:29:44.829Z,0
2016-12-03T03:30:55.265Z,0
2016-12-03T03:32:04.337Z,0
2016-12-03T03:33:14.137Z,0
2016-12-03T03:34:23.825Z,0
2016-12-03T03:35:33.256Z,0
2016-12-03T03:36:42.956Z,0
2016-12-03T03:37:52.345Z,0
2016-12-03T03:39:01.737Z,0
2016-12-03T03:40:11.508Z,0
2016-12-03T03:41:20.575Z,0
2016-12-03T03:42:30.368Z,0
2016-12-03T03:43:40.366Z,0
2016-12-03T03:44:49.775Z,0
2016-12-03T03:45:59.164Z,0
2016-12-03T03:47:08.998Z,0
2016-12-03T03:48:18.383Z,0
2016-12-03T03:49:27.456Z,0
2016-12-03T03:50:37.525Z,0
2016-12-03T03:51:47.850Z,0
2016-12-03T03:52:57.648Z,0
2016-12-03T03:54:07.448Z,0
2016-12-03T03:55:17.453Z,0
2016-12-03T03:56:26.854Z,0
2016-12-03T03:57:36.299Z,0
2016-12-03T03:58:45.796Z,0
2016-12-03T03:59:55.791Z,0
2016-12-03T04:01:05.481Z,0
2016-12-03T04:02:15.805Z,0
2016-12-03T04:03:24.886Z,0
2016-12-03T04:04:34.598Z,0
2016-12-03T04:05:44.965Z,0
2016-12-03T04:06:54.966Z,0
2016-12-03T04:08:04.355Z,0
2016-12-03T04:09:14.671Z,0
2016-12-03T04:10:23.948Z,0
2016-12-03T04:11:33.674Z,0
2016-12-03T04:12:43.995Z,0
2016-12-03T04:13:53.074Z,0
2016-12-03T04:15:02.764Z,0
2016-12-03T04:16:13.072Z,0
2016-12-03T04:17:23.394Z,0
2016-12-03T04:18:33.563Z,0
2016-12-03T04:19:43.255Z,0
2016-12-03T04:20:53.338Z,0
2016-12-03T04:22:03.042Z,0
2016-12-03T04:23:12.813Z,0
2016-12-03T04:24:22.201Z,0
2016-12-03T04:25:31.953Z,0
2016-12-03T04:26:41.681Z,0
2016-12-03T04:27:52.001Z,0
2016-12-03T04:29:01.465Z,0
2016-12-03T04:30:10.562Z,0
2016-12-03T04:31:20.325Z,0
2016-12-03T04:32:30.012Z,0
2016-12-03T04:33:39.721Z,0
2016-12-03T04:34:49.426Z,0
2016-12-03T04:35:59.129Z,0
2016-12-03T04:37:08.919Z,0
2016-12-03T04:38:18.925Z,0
2016-12-03T04:39:27.989Z,0
2016-12-03T04:40:37.690Z,0
2016-12-03T04:41:48.061Z,0
2016-12-03T04:42:57.241Z,0
2016-12-03T04:44:06.630Z,0
2016-12-03T04:45:16.047Z,0
2016-12-03T04:46:25.742Z,0
2016-12-03T04:47:35.428Z,0
2016-12-03T04:48:45.111Z,0
2016-12-03T04:49:55.431Z,0
2016-12-03T04:51:05.112Z,0
2016-12-03T04:52:14.813Z,0
2016-12-03T04:53:24.502Z,0
2016-12-03T04:54:34.220Z,0
2016-12-03T04:55:44.340Z,0
2016-12-03T04:56:53.767Z,0
2016-12-03T04:58:02.838Z,0
2016-12-03T04:59:12.835Z,0
2016-12-03T05:00:23.171Z,0
2016-12-03T05:01:33.575Z,0
2016-12-03T05:02:42.985Z,0
2016-12-03T05:03:53.089Z,0
2016-12-03T05:05:03.048Z,0
2016-12-03T05:06:12.748Z,0
2016-12-03T05:07:22.560Z,0
2016-12-03T05:08:32.268Z,0
2016-12-03T05:09:42.313Z,0
2016-12-03T05:10:52.321Z,0
2016-12-03T05:12:02.313Z,0
2016-12-03T05:13:12.302Z,0
2016-12-03T05:14:21.993Z,0
2016-12-03T05:15:32.420Z,0
2016-12-03T05:16:41.526Z,0
2016-12-03T05:17:51.227Z,0
2016-12-03T05:19:01.594Z,0
2016-12-03T05:20:10.672Z,0
2016-12-03T05:21:20.545Z,0
2016-12-03T05:22:29.612Z,0
2016-12-03T05:23:39.427Z,0
2016-12-03T05:24:49.172Z,0
2016-12-03T05:25:59.193Z,0
2016-12-03T05:27:08.373Z,0
2016-12-03T05:28:17.462Z,0
2016-12-03T05:29:27.173Z,0
2016-12-03T05:30:37.321Z,0
2016-12-03T05:31:47.363Z,0
2016-12-03T05:32:57.382Z,0
2016-12-03T05:34:07.390Z,0
2016-12-03T05:35:17.421Z,0
2016-12-03T05:36:27.103Z,0
2016-12-03T05:37:36.493Z,0
2016-12-03T05:38:45.982Z,0
2016-12-03T05:39:55.995Z,0
2016-12-03T05:41:05.434Z,0
2016-12-03T05:42:14.808Z,0
2016-12-03T05:43:24.832Z,0
2016-12-03T05:44:34.233Z,0
2016-12-03T05:45:44.261Z,0
2016-12-03T05:46:54.099Z,0
2016-12-03T05:48:03.626Z,0
2016-12-03T05:49:13.665Z,0
2016-12-03T05:50:23.736Z,0
2016-12-03T05:51:32.955Z,0
2016-12-03T05:52:42.955Z,0
2016-12-03T05:53:52.650Z,0
2016-12-03T05:55:01.774Z,0
2016-12-03T05:56:11.522Z,0
2016-12-03T05:57:20.609Z,0
2016-12-03T05:58:30.293Z,0
2016-12-03T05:59:39.827Z,0
2016-12-03T06:00:50.124Z,0
2016-12-03T06:01:58.917Z,0
2016-12-03T06:03:07.674Z,0
2016-12-03T06:04:17.393Z,0
2016-12-03T06:05:26.776Z,0
2016-12-03T06:06:36.483Z,0
2016-12-03T06:07:46.488Z,0
2016-12-03T06:08:55.607Z,0
2016-12-03T06:10:05.615Z,0
2016-12-03T06:11:15.317Z,0
2016-12-03T06:12:25.078Z,0
2016-12-03T06:13:34.451Z,0
2016-12-03T06:14:43.663Z,0
2016-12-03T06:15:52.758Z,0
2016-12-03T06:17:02.470Z,0
2016-12-03T06:18:12.794Z,0
2016-12-03T06:19:22.493Z,0
2016-12-03T06:20:31.578Z,0
2016-12-03T06:21:41.272Z,0
2016-12-03T06:22:51.122Z,0
2016-12-03T06:24:00.548Z,0
2016-12-03T06:25:10.511Z,0
2016-12-03T06:26:20.596Z,0
2016-12-03T06:27:31.101Z,0
2016-12-03T06:28:41.211Z,0
2016-12-03T06:29:50.917Z,0
2016-12-03T06:31:00.440Z,0
2016-12-03T06:32:10.440Z,0
2016-12-03T06:33:19.810Z,0
2016-12-03T06:34:30.127Z,0
2016-12-03T06:35:40.167Z,0
2016-12-03T06:36:49.377Z,0
2016-12-03T06:37:58.844Z,0
2016-12-03T06:39:08.742Z,0
2016-12-03T06:40:18.185Z,0
2016-12-03T06:41:28.217Z,0
2016-12-03T06:42:38.213Z,0
2016-12-03T06:43:47.965Z,0
2016-12-03T06:44:57.034Z,0
2016-12-03T06:46:07.066Z,0
2016-12-03T06:47:16.773Z,0
2016-12-03T06:48:26.487Z,0
2016-12-03T06:49:35.974Z,4
2016-12-03T06:50:45.764Z,0
2016-12-03T06:51:55.433Z,0
2016-12-03T06:53:05.502Z,4
2016-12-03T06:54:14.576Z,4
2016-12-03T06:55:24.389Z,4
2016-12-03T06:56:34.087Z,4
2016-12-03T06:57:44.476Z,4
2016-12-03T06:58:54.555Z,4
2016-12-03T07:00:04.261Z,8
2016-12-03T07:01:14.466Z,4
2016-12-03T07:02:24.488Z,8
2016-12-03T07:03:33.346Z,8
2016-12-03T07:04:43.507Z,8
2016-12-03T07:05:53.204Z,12
2016-12-03T07:07:02.889Z,16
2016-12-03T07:08:11.955Z,16
2016-12-03T07:09:21.665Z,20
2016-12-03T07:10:31.728Z,20
2016-12-03T07:11:41.755Z,24
2016-12-03T07:12:51.266Z,28
2016-12-03T07:14:01.109Z,32
2016-12-03T07:15:11.115Z,36
2016-12-03T07:16:21.127Z,36
2016-12-03T07:17:31.146Z,44
2016-12-03T07:18:40.839Z,44
2016-12-03T07:19:50.516Z,48
2016-12-03T07:20:59.903Z,52
2016-12-03T07:22:08.697Z,56
2016-12-03T07:23:17.567Z,60
2016-12-03T07:24:26.947Z,60
2016-12-03T07:25:36.958Z,64
2016-12-03T07:26:46.739Z,68
2016-12-03T07:27:56.602Z,72
2016-12-03T07:29:05.999Z,76
2016-12-03T07:30:15.443Z,80
2016-12-03T07:31:25.549Z,84
2016-12-03T07:32:34.657Z,88
2016-12-03T07:33:43.748Z,92
2016-12-03T07:34:54.167Z,188
2016-12-03T07:36:03.988Z,184
2016-12-03T07:37:13.988Z,188
2016-12-03T07:38:23.726Z,196
2016-12-03T07:39:34.025Z,200
2016-12-03T07:40:44.566Z,208
2016-12-03T07:41:54.633Z,216
2016-12-03T07:43:04.930Z,228
2016-12-03T07:44:15.379Z,240
2016-12-03T07:45:24.154Z,248
2016-12-03T07:46:34.071Z,256
2016-12-03T07:47:44.288Z,264
2016-12-03T07:48:54.437Z,272
2016-12-03T07:50:03.980Z,280
2016-12-03T07:51:13.382Z,288
2016-12-03T07:52:23.396Z,296
2016-12-03T07:53:33.324Z,300
2016-12-03T07:54:43.036Z,300
2016-12-03T07:55:52.210Z,304
2016-12-03T07:57:02.231Z,308
2016-12-03T07:58:12.050Z,316
2016-12-03T07:59:21.556Z,324
2016-12-03T08:00:31.327Z,328
2016-12-03T08:01:40.710Z,340
2016-12-03T08:02:50.420Z,352
2016-12-03T08:04:00.466Z,364
2016-12-03T08:05:10.267Z,372
2016-12-03T08:06:20.270Z,388
2016-12-03T08:07:30.585Z,400
2016-12-03T08:08:40.084Z,416
2016-12-03T08:09:49.784Z,428
2016-12-03T08:10:58.994Z,436
2016-12-03T08:12:09.516Z,448
2016-12-03T08:13:19.899Z,432
2016-12-03T08:14:29.911Z,452
2016-12-03T08:15:39.648Z,448
2016-12-03T08:16:49.365Z,456
2016-12-03T08:17:58.748Z,464
2016-12-03T08:19:08.540Z,476
2016-12-03T08:20:18.277Z,496
2016-12-03T08:21:28.170Z,516
2016-12-03T08:22:38.230Z,528
2016-12-03T08:23:47.950Z,540
2016-12-03T08:24:57.975Z,544
2016-12-03T08:26:08.098Z,552
2016-12-03T08:27:17.782Z,556
2016-12-03T08:28:27.230Z,556
2016-12-03T08:29:36.988Z,484
2016-12-03T08:30:47.342Z,484
2016-12-03T08:31:57.360Z,484
2016-12-03T08:33:07.372Z,488
2016-12-03T08:34:17.399Z,496
2016-12-03T08:35:27.119Z,508
2016-12-03T08:36:37.142Z,520
2016-12-03T08:37:47.199Z,540
2016-12-03T08:38:57.221Z,548
2016-12-03T08:40:07.090Z,548
2016-12-03T08:41:16.519Z,544
2016-12-03T08:42:26.237Z,544
2016-12-03T08:43:36.266Z,548
2016-12-03T08:44:46.297Z,548
2016-12-03T08:45:56.360Z,536
2016-12-03T08:47:06.059Z,524
2016-12-03T08:48:15.622Z,520
2016-12-03T08:49:25.617Z,500
2016-12-03T08:50:35.010Z,488
2016-12-03T08:51:45.351Z,480
2016-12-03T08:52:55.366Z,472
2016-12-03T08:54:05.369Z,468
2016-12-03T08:55:15.390Z,460
2016-12-03T08:56:24.816Z,468
2016-12-03T08:57:35.169Z,476
2016-12-03T08:58:44.896Z,492
2016-12-03T08:59:55.001Z,512
2016-12-03T09:01:05.364Z,540
2016-12-03T09:02:15.843Z,564
2016-12-03T09:03:26.169Z,584
2016-12-03T09:04:35.394Z,596
2016-12-03T09:05:45.461Z,592
2016-12-03T09:06:55.811Z,584
2016-12-03T09:08:06.141Z,568
2016-12-03T09:09:16.161Z,568
2016-12-03T09:10:26.192Z,588
2016-12-03T09:11:35.589Z,608
2016-12-03T09:12:45.611Z,636
2016-12-03T09:13:55.848Z,664
2016-12-03T09:15:05.557Z,696
2016-12-03T09:16:15.632Z,712
2016-12-03T09:17:25.364Z,720
2016-12-03T09:18:35.072Z,732
2016-12-03T09:19:44.791Z,732
2016-12-03T09:20:54.630Z,740
2016-12-03T09:22:04.780Z,748
2016-12-03T09:23:14.500Z,764
2016-12-03T09:24:24.205Z,768
2016-12-03T09:25:34.702Z,768
2016-12-03T09:26:44.827Z,760
2016-12-03T09:27:54.825Z,752
2016-12-03T09:29:04.565Z,732
2016-12-03T09:30:14.443Z,708
2016-12-03T09:31:24.472Z,688
2016-12-03T09:32:34.762Z,676
2016-12-03T09:33:44.587Z,672
2016-12-03T09:34:54.945Z,676
2016-12-03T09:36:05.134Z,680
2016-12-03T09:37:15.160Z,688
2016-12-03T09:38:24.873Z,696
2016-12-03T09:39:34.669Z,700
2016-12-03T09:40:44.250Z,708
2016-12-03T09:41:54.169Z,716
2016-12-03T09:43:03.885Z,720
2016-12-03T09:44:13.891Z,724
2016-12-03T09:45:23.990Z,724
2016-12-03T09:46:34.128Z,724
2016-12-03T09:47:44.452Z,720
2016-12-03T09:48:54.448Z,712
2016-12-03T09:50:04.930Z,700
2016-12-03T09:51:14.743Z,688
2016-12-03T09:52:25.141Z,676
2016-12-03T09:53:35.203Z,672
2016-12-03T09:54:45.201Z,672
2016-12-03T09:55:55.286Z,684
2016-12-03T09:57:04.989Z,696
2016-12-03T09:58:14.410Z,716
2016-12-03T09:59:24.132Z,740
2016-12-03T10:00:34.149Z,756
2016-12-03T10:01:43.876Z,764
2016-12-03T10:02:53.874Z,768
2016-12-03T10:04:03.586Z,772
2016-12-03T10:05:13.602Z,772
2016-12-03T10:06:23.714Z,764
2016-12-03T10:07:33.460Z,764
2016-12-03T10:08:43.537Z,756
2016-12-03T10:09:53.660Z,752
2016-12-03T10:11:03.381Z,732
2016-12-03T10:12:13.077Z,692
2016-12-03T10:13:23.091Z,664
2016-12-03T10:14:33.189Z,644
2016-12-03T10:15:42.931Z,644
2016-12-03T10:16:53.430Z,652
2016-12-03T10:18:03.547Z,668
2016-12-03T10:19:13.267Z,664
2016-12-03T10:20:23.432Z,652
2016-12-03T10:21:33.435Z,632
2016-12-03T10:22:43.463Z,624
2016-12-03T10:23:53.174Z,620
2016-12-03T10:25:02.537Z,624
2016-12-03T10:26:11.949Z,636
2016-12-03T10:27:21.667Z,636
2016-12-03T10:28:32.123Z,624
2016-12-03T10:29:41.998Z,616
2016-12-03T10:30:52.629Z,612
2016-12-03T10:32:02.950Z,608
2016-12-03T10:33:12.980Z,616
2016-12-03T10:34:23.329Z,636
2016-12-03T10:35:33.353Z,756
2016-12-03T10:36:43.177Z,760
2016-12-03T10:37:52.348Z,748
2016-12-03T10:39:02.370Z,720
2016-12-03T10:40:12.674Z,692
2016-12-03T10:41:23.018Z,672
2016-12-03T10:42:33.071Z,652
2016-12-03T10:43:42.516Z,636
2016-12-03T10:44:52.307Z,620
2016-12-03T10:46:02.081Z,616
2016-12-03T10:47:12.714Z,624
2016-12-03T10:48:22.881Z,616
2016-12-03T10:49:32.906Z,620
2016-12-03T10:50:42.613Z,620
2016-12-03T10:51:52.824Z,620
2016-12-03T10:53:03.167Z,616
2016-12-03T10:54:12.851Z,620
2016-12-03T10:55:22.870Z,612
2016-12-03T10:56:33.214Z,620
2016-12-03T10:57:43.253Z,620
2016-12-03T10:58:53.569Z,628
2016-12-03T11:00:03.654Z,624
2016-12-03T11:01:13.132Z,620
2016-12-03T11:02:23.203Z,628
2016-12-03T11:03:32.938Z,628
2016-12-03T11:04:42.625Z,628
2016-12-03T11:05:52.951Z,628
2016-12-03T11:07:03.002Z,620
2016-12-03T11:08:12.811Z,620
2016-12-03T11:09:22.670Z,624
2016-12-03T11:10:32.401Z,624
2016-12-03T11:11:42.811Z,620
2016-12-03T11:12:52.523Z,624
2016-12-03T11:14:02.556Z,620
2016-12-03T11:15:13.007Z,624
2016-12-03T11:16:23.254Z,628
2016-12-03T11:17:32.948Z,628
2016-12-03T11:18:42.971Z,628
2016-12-03T11:19:53.002Z,632
2016-12-03T11:21:03.398Z,636
2016-12-03T11:22:12.813Z,636
2016-12-03T11:23:22.569Z,636
2016-12-03T11:24:32.281Z,636
2016-12-03T11:25:41.991Z,636
2016-12-03T11:26:52.012Z,636
2016-12-03T11:28:02.324Z,640
2016-12-03T11:29:12.921Z,640
2016-12-03T11:30:22.932Z,640
2016-12-03T11:31:32.958Z,640
2016-12-03T11:32:43.019Z,640
2016-12-03T11:33:52.793Z,640
2016-12-03T11:35:02.371Z,640
2016-12-03T11:36:11.832Z,640
2016-12-03T11:37:21.283Z,640
2016-12-03T11:38:31.288Z,640
2016-12-03T11:39:41.326Z,636
2016-12-03T11:40:51.401Z,636
2016-12-03T11:42:01.751Z,636
2016-12-03T11:43:11.776Z,632
2016-12-03T11:44:21.817Z,636
2016-12-03T11:45:31.841Z,636
2016-12-03T11:46:41.933Z,636
2016-12-03T11:47:51.023Z,632
2016-12-03T11:49:00.818Z,640
2016-12-03T11:50:10.653Z,644
2016-12-03T11:51:20.775Z,644
2016-12-03T11:52:31.123Z,648
2016-12-03T11:53:41.504Z,656
2016-12-03T11:54:51.951Z,656
2016-12-03T11:56:02.287Z,664
2016-12-03T11:57:12.002Z,668
2016-12-03T11:58:21.700Z,672
2016-12-03T11:59:32.055Z,676
2016-12-03T12:00:42.401Z,680
2016-12-03T12:01:52.762Z,676
2016-12-03T12:03:02.461Z,672
2016-12-03T12:04:12.170Z,676
2016-12-03T12:05:21.622Z,672
2016-12-03T12:06:31.958Z,672
2016-12-03T12:07:41.672Z,580
2016-12-03T12:08:51.716Z,572
2016-12-03T12:10:01.715Z,564
2016-12-03T12:11:11.432Z,556
2016-12-03T12:12:21.470Z,552
2016-12-03T12:13:31.793Z,548
2016-12-03T12:14:41.846Z,544
2016-12-03T12:15:51.874Z,536
2016-12-03T12:17:01.903Z,528
2016-12-03T12:18:11.933Z,528
2016-12-03T12:19:21.964Z,524
2016-12-03T12:20:31.394Z,520
2016-12-03T12:21:41.519Z,520
2016-12-03T12:22:51.940Z,516
2016-12-03T12:24:01.703Z,508
2016-12-03T12:25:11.849Z,508
2016-12-03T12:26:21.574Z,508
2016-12-03T12:27:31.633Z,504
2016-12-03T12:28:41.760Z,504
2016-12-03T12:29:51.824Z,504
2016-12-03T12:31:02.147Z,504
2016-12-03T12:32:12.164Z,500
2016-12-03T12:33:21.563Z,500
2016-12-03T12:34:31.262Z,500
2016-12-03T12:35:40.966Z,500
2016-12-03T12:36:51.102Z,492
2016-12-03T12:38:01.171Z,492
2016-12-03T12:39:10.906Z,496
2016-12-03T12:40:20.953Z,496
2016-12-03T12:41:30.674Z,492
2016-12-03T12:42:40.374Z,492
2016-12-03T12:43:50.999Z,496
2016-12-03T12:45:00.686Z,496
2016-12-03T12:46:11.007Z,496
2016-12-03T12:47:21.377Z,496
2016-12-03T12:48:31.092Z,496
2016-12-03T12:49:41.130Z,496
2016-12-03T12:50:51.154Z,496
2016-12-03T12:52:01.482Z,492
2016-12-03T12:53:11.208Z,488
2016-12-03T12:54:21.528Z,488
2016-12-03T12:55:31.556Z,480
2016-12-03T12:56:41.572Z,480
2016-12-03T12:57:51.911Z,480
2016-12-03T12:59:01.615Z,480
2016-12-03T13:00:11.398Z,480
2016-12-03T13:01:21.459Z,480
2016-12-03T13:02:30.921Z,476
2016-12-03T13:03:41.351Z,476
2016-12-03T13:04:51.388Z,476
2016-12-03T13:06:01.085Z,468
2016-12-03T13:07:10.823Z,468
2016-12-03T13:08:21.359Z,468
2016-12-03T13:09:31.379Z,472
2016-12-03T13:10:41.600Z,468
2016-12-03T13:11:51.522Z,472
2016-12-03T13:13:00.951Z,476
2016-12-03T13:14:11.203Z,576
2016-12-03T13:15:20.918Z,584
2016-12-03T13:16:31.253Z,588
2016-12-03T13:17:40.740Z,592
2016-12-03T13:18:50.578Z,596
2016-12-03T13:20:00.297Z,500
2016-12-03T13:21:10.320Z,488
2016-12-03T13:22:20.379Z,484
2016-12-03T13:23:29.812Z,484
2016-12-03T13:24:39.832Z,484
2016-12-03T13:25:50.170Z,480
2016-12-03T13:27:00.239Z,472
2016-12-03T13:28:09.645Z,480
2016-12-03T13:29:19.599Z,480
2016-12-03T13:30:29.020Z,480
2016-12-03T13:31:38.829Z,476
2016-12-03T13:32:48.814Z,472
2016-12-03T13:33:59.372Z,472
2016-12-03T13:35:09.101Z,468
2016-12-03T13:36:19.131Z,464
2016-12-03T13:37:29.269Z,456
2016-12-03T13:38:39.182Z,452
2016-12-03T13:39:48.897Z,448
2016-12-03T13:40:58.870Z,444
2016-12-03T13:42:08.271Z,440
2016-12-03T13:43:17.970Z,432
2016-12-03T13:44:27.668Z,432
2016-12-03T13:45:37.579Z,428
2016-12-03T13:46:47.664Z,424
2016-12-03T13:47:57.386Z,420
2016-12-03T13:49:07.158Z,416
2016-12-03T13:50:17.515Z,412
2016-12-03T13:51:27.901Z,404
2016-12-03T13:52:37.967Z,400
2016-12-03T13:53:47.362Z,396
2016-12-03T13:54:57.379Z,392
2016-12-03T13:56:07.429Z,384
2016-12-03T13:57:17.890Z,380
2016-12-03T13:58:27.279Z,376
2016-12-03T13:59:37.312Z,368
2016-12-03T14:00:47.336Z,368
2016-12-03T14:01:57.088Z,364
2016-12-03T14:03:06.789Z,360
2016-12-03T14:04:16.483Z,352
2016-12-03T14:05:26.907Z,352
2016-12-03T14:06:36.988Z,348
2016-12-03T14:07:47.009Z,344
2016-12-03T14:08:57.038Z,344
2016-12-03T14:10:07.077Z,336
2016-12-03T14:11:16.786Z,336
2016-12-03T14:12:26.805Z,332
2016-12-03T14:13:36.689Z,328
2016-12-03T14:14:46.697Z,324
2016-12-03T14:15:56.503Z,324
2016-12-03T14:17:06.326Z,316
2016-12-03T14:18:16.033Z,316
2016-12-03T14:19:25.436Z,312
2016-12-03T14:20:35.459Z,304
2016-12-03T14:21:45.541Z,304
2016-12-03T14:22:55.565Z,296
2016-12-03T14:24:05.879Z,296
2016-12-03T14:25:15.592Z,288
2016-12-03T14:26:25.608Z,284
2016-12-03T14:27:35.953Z,280
2016-12-03T14:28:46.676Z,272
2016-12-03T14:29:56.729Z,268
2016-12-03T14:31:06.722Z,264
2016-12-03T14:32:16.173Z,252
2016-12-03T14:33:58.394Z,244
2016-12-03T14:35:08.095Z,240
2016-12-03T14:36:17.797Z,232
2016-12-03T14:37:27.612Z,224
2016-12-03T14:38:37.619Z,220
2016-12-03T14:39:47.646Z,212
2016-12-03T14:40:57.828Z,204
2016-12-03T14:42:07.931Z,196
2016-12-03T14:43:18.037Z,192
2016-12-03T14:44:27.829Z,188
2016-12-03T14:45:37.859Z,184
2016-12-03T14:46:47.871Z,176
2016-12-03T14:47:57.587Z,168
2016-12-03T14:49:07.918Z,164
2016-12-03T14:50:17.318Z,160
2016-12-03T14:51:26.767Z,152
2016-12-03T14:52:36.839Z,148
2016-12-03T14:53:47.282Z,140
2016-12-03T14:54:57.303Z,132
2016-12-03T14:56:07.702Z,128
2016-12-03T14:57:17.486Z,116
2016-12-03T14:58:27.187Z,112
2016-12-03T14:59:37.240Z,104
2016-12-03T15:00:47.261Z,96
2016-12-03T15:01:57.338Z,92
2016-12-03T15:03:07.402Z,88
2016-12-03T15:04:17.142Z,80
2016-12-03T15:05:27.386Z,72
2016-12-03T15:06:37.505Z,68
2016-12-03T15:07:47.532Z,64
2016-12-03T15:08:57.584Z,56
2016-12-03T15:10:07.648Z,52
2016-12-03T15:11:17.373Z,48
2016-12-03T15:12:27.493Z,40
2016-12-03T15:13:37.503Z,40
2016-12-03T15:14:47.634Z,36
2016-12-03T15:15:58.143Z,32
2016-12-03T15:17:08.523Z,28
2016-12-03T15:18:18.998Z,24
2016-12-03T15:19:29.134Z,24
2016-12-03T15:20:39.517Z,20
2016-12-03T15:21:49.546Z,16
2016-12-03T15:22:59.904Z,108
2016-12-03T15:24:11.165Z,104
2016-12-03T15:25:20.605Z,100
2016-12-03T15:26:30.526Z,100
2016-12-03T15:27:40.591Z,96
2016-12-03T15:28:50.353Z,96
2016-12-03T15:29:59.796Z,96
2016-12-03T15:31:09.920Z,88
2016-12-03T15:32:20.128Z,92
2016-12-03T15:33:30.520Z,92
2016-12-03T15:34:40.312Z,92
2016-12-03T15:35:50.324Z,92
2016-12-03T15:37:00.034Z,92
2016-12-03T15:38:09.768Z,92
2016-12-03T15:39:19.718Z,88
2016-12-03T15:40:29.758Z,92
2016-12-03T15:41:39.529Z,92
2016-12-03T15:42:49.630Z,92
2016-12-03T15:44:00.059Z,92
2016-12-03T15:45:10.092Z,88
2016-12-03T15:46:19.868Z,88
2016-12-03T15:47:30.355Z,92
2016-12-03T15:48:39.797Z,92
2016-12-03T15:49:49.833Z,92
2016-12-03T15:51:00.199Z,92
2016-12-03T15:52:10.556Z,92
2016-12-03T15:53:20.895Z,88
2016-12-03T15:54:30.995Z,88
2016-12-03T15:55:41.325Z,88
2016-12-03T15:56:51.654Z,88
2016-12-03T15:58:01.672Z,92
2016-12-03T15:59:11.722Z,88
2016-12-03T16:00:21.956Z,92
2016-12-03T16:01:32.303Z,88
2016-12-03T16:02:42.105Z,92
2016-12-03T16:03:52.140Z,88
2016-12-03T16:05:02.012Z,88
2016-12-03T16:06:12.113Z,88
2016-12-03T16:07:22.851Z,88
2016-12-03T16:08:32.918Z,84
2016-12-03T16:09:43.269Z,88
2016-12-03T16:10:52.977Z,92
2016-12-03T16:12:03.004Z,92
2016-12-03T16:13:12.845Z,88
2016-12-03T16:14:22.587Z,88
2016-12-03T16:15:32.296Z,84
2016-12-03T16:16:42.405Z,88
2016-12-03T16:17:52.549Z,88
2016-12-03T16:19:02.890Z,88
2016-12-03T16:20:13.246Z,96
2016-12-03T16:21:22.966Z,104
2016-12-03T16:22:33.005Z,104
2016-12-03T16:23:43.540Z,104
2016-12-03T16:24:53.265Z,104
2016-12-03T16:26:02.678Z,104
2016-12-03T16:27:13.052Z,104
2016-12-03T16:28:23.447Z,100
2016-12-03T16:29:33.524Z,100
2016-12-03T16:30:43.952Z,96
2016-12-03T16:31:54.031Z,96
2016-12-03T16:33:04.153Z,96
2016-12-03T16:34:14.756Z,100
2016-12-03T16:35:24.486Z,100